Time;durP1;ratioP1;P1;durP2;ratioP2;P2;SDS_P1;SDS_P2;PMS_P1;PMS_P2;Temp;Humidity;BMP_temperature;BMP_pressure;BME280_temperature;BME280_humidity;BME280_pressure;Samples;Min_cycle;Max_cycle;Signal;HPM_P1;HPM_P2
2022/01/28 00:00:28;;;;;;;0.20;0.10;;;8.40;99.90;;;;;;25593794;23;20272;-73
2022/01/28 00:10:35;;;;;;;0.20;0.00;;;8.50;99.90;;;;;;25594312;23;20161;-75
2022/01/28 00:41:34;;;;;;;0.20;0.03;;;8.20;99.90;;;;;;25589438;23;20233;-74
2022/01/28 00:51:39;;;;;;;0.20;0.00;;;8.10;99.90;;;;;;25590644;23;20170;-73
2022/01/28 01:01:43;;;;;;;0.20;0.07;;;7.90;99.90;;;;;;25591698;23;20625;-73
2022/01/28 01:11:49;;;;;;;0.20;0.10;;;7.90;99.90;;;;;;25591348;23;20173;-66
2022/01/28 01:21:56;;;;;;;0.20;0.10;;;8.40;99.90;;;;;;25587894;23;20281;-66
2022/01/28 01:32:04;;;;;;;0.20;0.00;;;8.30;99.90;;;;;;25589625;23;20166;-72
2022/01/28 01:42:17;;;;;;;0.20;0.00;;;8.30;99.90;;;;;;25588838;23;20305;-70
2022/01/28 01:52:22;;;;;;;0.20;0.10;;;8.10;99.90;;;;;;25589568;23;20549;-70
2022/01/28 02:02:26;;;;;;;0.20;0.10;;;7.80;99.90;;;;;;25588633;23;20209;-71
2022/01/28 02:12:45;;;;;;;0.20;0.10;;;7.50;99.90;;;;;;25587733;23;20612;-71
2022/01/28 02:22:50;;;;;;;0.20;0.10;;;7.40;99.90;;;;;;25588257;23;20273;-65
2022/01/28 02:33:00;;;;;;;0.20;0.10;;;7.50;99.90;;;;;;25587320;23;20238;-64
2022/01/28 02:43:19;;;;;;;0.20;0.10;;;7.60;99.90;;;;;;25585400;23;20206;-73
2022/01/28 02:53:25;;;;;;;0.20;0.10;;;7.50;99.90;;;;;;25587251;23;20177;-72
2022/01/28 03:03:30;;;;;;;0.20;0.10;;;7.50;99.90;;;;;;25584755;23;20198;-73
2022/01/28 03:13:57;;;;;;;0.20;0.10;;;7.30;99.90;;;;;;25585127;23;20624;-73
2022/01/28 03:24:04;;;;;;;0.20;0.10;;;7.20;99.90;;;;;;25586831;23;20479;-65
2022/01/28 03:34:08;;;;;;;0.20;0.10;;;7.40;99.90;;;;;;25585828;23;20186;-67
2022/01/28 03:44:13;;;;;;;2.00;1.03;;;7.60;99.90;;;;;;25585041;23;20889;-71
2022/01/28 03:54:17;;;;;;;0.20;0.10;;;7.60;99.90;;;;;;25585177;23;20634;-70
2022/01/28 04:14:44;;;;;;;0.20;0.10;;;8.00;99.90;;;;;;25584157;23;20236;-64
2022/01/28 04:24:50;;;;;;;0.20;0.10;;;7.60;99.90;;;;;;25584977;23;20648;-64
2022/01/28 04:34:54;;;;;;;0.20;0.10;;;7.60;99.90;;;;;;25590294;23;20201;-70
2022/01/28 04:45:05;;;;;;;0.20;0.00;;;7.60;99.90;;;;;;25590121;23;20230;-69
2022/01/28 04:55:20;;;;;;;0.20;0.10;;;7.50;99.90;;;;;;25592120;23;20311;-70
2022/01/28 05:26:25;;;;;;;0.20;0.00;;;7.60;99.90;;;;;;25590870;23;20206;-72
2022/01/28 05:36:29;;;;;;;0.40;0.40;;;8.10;99.90;;;;;;25588718;23;20237;-71
2022/01/28 05:46:34;;;;;;;0.47;0.40;;;8.00;99.90;;;;;;25588123;23;20571;-64
2022/01/28 05:56:38;;;;;;;0.20;0.10;;;8.00;99.90;;;;;;25585465;23;20253;-64
2022/01/28 06:06:43;;;;;;;0.30;0.30;;;8.00;99.90;;;;;;25586793;23;20272;-74
2022/01/28 06:16:47;;;;;;;0.63;0.63;;;8.00;99.90;;;;;;25584199;23;20281;-74
2022/01/28 06:26:53;;;;;;;0.20;0.10;;;8.10;99.90;;;;;;25585171;23;20237;-66
2022/01/28 06:36:57;;;;;;;0.23;0.23;;;7.90;99.90;;;;;;25584727;23;20174;-66
2022/01/28 06:47:04;;;;;;;0.20;0.10;;;7.70;99.90;;;;;;25582298;23;20206;-66
2022/01/28 06:57:07;;;;;;;0.20;0.10;;;7.80;99.90;;;;;;25582089;23;20253;-67
2022/01/28 07:07:13;;;;;;;0.20;0.10;;;7.70;99.90;;;;;;25578884;23;20623;-72
2022/01/28 07:17:17;;;;;;;0.20;0.10;;;7.80;99.90;;;;;;25579855;23;20535;-71
2022/01/28 07:27:22;;;;;;;0.20;0.10;;;8.10;99.90;;;;;;25582428;23;20589;-71
2022/01/28 07:37:25;;;;;;;0.20;0.10;;;7.90;99.90;;;;;;25584380;23;20190;-72
2022/01/28 07:47:31;;;;;;;0.20;0.10;;;8.10;99.90;;;;;;25582606;23;20294;-73
2022/01/28 07:57:35;;;;;;;0.20;0.10;;;8.00;99.90;;;;;;25580424;23;20273;-71
2022/01/28 08:07:40;;;;;;;0.20;0.10;;;8.20;99.90;;;;;;25587129;23;20186;-71
2022/01/28 08:17:44;;;;;;;0.87;0.87;;;9.00;99.90;;;;;;25588502;23;20228;-69
2022/01/28 08:27:50;;;;;;;0.20;0.10;;;9.70;99.90;;;;;;25587701;23;20189;-70
2022/01/28 08:37:54;;;;;;;0.20;0.10;;;10.10;99.90;;;;;;25583767;23;20624;-66
2022/01/28 08:47:59;;;;;;;0.20;0.10;;;10.20;99.90;;;;;;25586923;23;20213;-65
2022/01/28 08:58:03;;;;;;;1.50;1.40;;;10.90;99.90;;;;;;25587375;23;20190;-65
2022/01/28 09:08:09;;;;;;;0.20;0.10;;;11.30;99.90;;;;;;25587879;23;20269;-75
2022/01/28 09:18:13;;;;;;;0.20;0.10;;;11.70;99.90;;;;;;25586138;23;20728;-75
2022/01/28 09:28:19;;;;;;;0.20;0.20;;;12.30;99.90;;;;;;25587036;23;20193;-73
2022/01/28 09:38:22;;;;;;;0.20;0.10;;;12.30;99.90;;;;;;25587706;23;20178;-74
2022/01/28 09:48:28;;;;;;;0.20;0.00;;;12.50;99.90;;;;;;25583781;23;20524;-66
2022/01/28 09:58:32;;;;;;;0.20;0.10;;;12.90;99.90;;;;;;25583501;23;20275;-65
2022/01/28 10:08:42;;;;;;;0.20;0.10;;;12.70;99.90;;;;;;25583788;23;20254;-69
2022/01/28 10:18:51;;;;;;;0.20;0.10;;;12.80;99.90;;;;;;25581205;23;20198;-74
2022/01/28 10:28:57;;;;;;;0.20;0.10;;;13.30;99.90;;;;;;25581719;23;20778;-71
2022/01/28 10:39:02;;;;;;;0.20;0.17;;;13.50;99.90;;;;;;25576501;23;20276;-67
2022/01/28 10:49:08;;;;;;;0.20;0.00;;;13.80;99.90;;;;;;25567615;23;20190;-67
2022/01/28 10:59:14;;;;;;;0.20;0.10;;;14.50;99.90;;;;;;25568803;23;20301;-70
2022/01/28 11:09:22;;;;;;;0.20;0.10;;;14.80;99.90;;;;;;25570063;23;20204;-71
2022/01/28 11:19:28;;;;;;;0.20;0.10;;;15.90;99.90;;;;;;25569670;23;20277;-70
2022/01/28 11:29:34;;;;;;;0.20;0.10;;;17.00;99.90;;;;;;25568379;23;20660;-70
2022/01/28 11:39:41;;;;;;;0.20;0.10;;;17.70;99.90;;;;;;25566562;23;20202;-72
2022/01/28 11:50:05;;;;;;;0.20;0.07;;;18.90;99.90;;;;;;25569054;23;20194;-71
2022/01/28 12:00:23;;;;;;;0.30;0.30;;;19.60;99.90;;;;;;25567066;23;20243;-72
2022/01/28 12:10:30;;;;;;;5.33;5.00;;;20.10;99.90;;;;;;25634120;22;20268;-68
2022/01/28 12:20:46;;;;;;;0.20;0.00;;;20.80;99.90;;;;;;25693614;23;20166;-68
2022/01/28 12:30:58;;;;;;;0.23;0.23;;;21.40;99.90;;;;;;25692418;23;20265;-69
2022/01/28 12:41:07;;;;;;;0.20;0.00;;;22.30;99.90;;;;;;25666053;23;20180;-68
2022/01/28 12:51:12;;;;;;;0.20;0.03;;;23.10;99.90;;;;;;25697858;23;20220;-72
2022/01/28 13:01:18;;;;;;;0.20;0.10;;;22.90;99.20;;;;;;25698595;23;20196;-73
2022/01/28 13:11:25;;;;;;;0.20;0.00;;;23.00;97.80;;;;;;25696178;23;20243;-67
2022/01/28 13:21:29;;;;;;;0.20;0.00;;;24.70;93.30;;;;;;25692625;23;20169;-67
2022/01/28 13:31:34;;;;;;;0.20;0.15;;;25.50;95.40;;;;;;25691475;23;20292;-81
2022/01/28 13:41:39;;;;;;;0.20;0.00;;;25.50;95.00;;;;;;25691827;23;20193;-66
2022/01/28 13:51:44;;;;;;;0.40;0.40;;;25.80;93.20;;;;;;25666606;23;20197;-68
2022/01/28 14:01:50;;;;;;;0.57;0.47;;;25.20;95.50;;;;;;25694042;23;20277;-66
2022/01/28 14:12:01;;;;;;;0.22;0.10;;;25.30;94.60;;;;;;25693731;23;20524;-66
2022/01/28 14:22:08;;;;;;;0.20;0.00;;;23.80;99.90;;;;;;25696434;23;20308;-69
2022/01/28 14:32:28;;;;;;;0.20;0.00;;;22.90;99.90;;;;;;25696736;23;20169;-72
2022/01/28 14:42:31;;;;;;;0.20;0.00;;;22.00;99.90;;;;;;25694741;23;20185;-68
2022/01/28 14:52:37;;;;;;;0.20;0.20;;;22.10;99.90;;;;;;25691854;23;20240;-68
2022/01/28 15:02:40;;;;;;;0.20;0.00;;;23.00;99.90;;;;;;25693705;23;20541;-66
2022/01/28 15:12:46;;;;;;;0.20;0.10;;;22.70;99.90;;;;;;25665343;23;20225;-67
2022/01/28 15:22:50;;;;;;;3.27;1.20;;;23.00;99.90;;;;;;25688970;23;20193;-68
2022/01/28 15:43:20;;;;;;;0.20;0.00;;;21.90;99.90;;;;;;25684154;23;20200;-68
2022/01/28 15:53:26;;;;;;;0.20;0.10;;;21.10;99.90;;;;;;25659443;23;20170;-69
2022/01/28 16:03:29;;;;;;;0.20;0.10;;;20.10;99.90;;;;;;25684881;23;20640;-70
2022/01/28 16:13:53;;;;;;;0.20;0.00;;;19.10;99.90;;;;;;25685310;23;20197;-70
2022/01/28 16:23:58;;;;;;;0.20;0.10;;;18.50;99.90;;;;;;25691299;23;20575;-72
2022/01/28 16:34:04;;;;;;;0.20;0.00;;;17.50;99.90;;;;;;25694119;23;20277;-69
2022/01/28 16:44:11;;;;;;;0.20;0.10;;;16.70;99.90;;;;;;25664332;23;20202;-71
2022/01/28 16:54:16;;;;;;;0.20;0.10;;;15.30;99.90;;;;;;25692664;23;20834;-71
2022/01/28 17:04:20;;;;;;;0.20;0.10;;;15.00;99.90;;;;;;25692049;23;20201;-70
2022/01/28 17:14:26;;;;;;;0.20;0.10;;;14.10;99.90;;;;;;25692274;23;20627;-70
2022/01/28 17:24:30;;;;;;;0.20;0.00;;;13.60;99.90;;;;;;25692989;23;20197;-67
2022/01/28 17:34:42;;;;;;;0.47;0.47;;;13.10;99.90;;;;;;25662168;23;20177;-66
2022/01/28 17:44:45;;;;;;;0.20;0.00;;;12.70;99.90;;;;;;25689900;23;20515;-71
2022/01/28 17:54:51;;;;;;;0.20;0.10;;;12.60;99.90;;;;;;25689059;23;20169;-70
2022/01/28 18:04:55;;;;;;;0.20;0.20;;;12.20;99.90;;;;;;25689685;23;20200;-70
2022/01/28 18:15:00;;;;;;;0.20;0.10;;;11.50;99.90;;;;;;25688972;23;20154;-65
2022/01/28 18:25:04;;;;;;;0.20;0.10;;;11.10;99.90;;;;;;25690364;23;20209;-70
2022/01/28 18:35:10;;;;;;;0.20;0.10;;;11.10;99.90;;;;;;25701794;23;20233;-70
2022/01/28 18:45:16;;;;;;;0.53;0.50;;;10.80;99.90;;;;;;25703378;23;20186;-70
2022/01/28 18:55:22;;;;;;;0.20;0.10;;;10.40;99.90;;;;;;25678481;23;20177;-71
2022/01/28 19:05:26;;;;;;;0.20;0.20;;;10.10;99.90;;;;;;25701379;23;20279;-71
2022/01/28 19:15:31;;;;;;;0.20;0.20;;;10.10;99.90;;;;;;25703656;23;20245;-70
2022/01/28 19:25:35;;;;;;;0.20;0.10;;;10.10;99.90;;;;;;25701205;23;20213;-70
2022/01/28 19:35:41;;;;;;;0.20;0.10;;;11.10;99.90;;;;;;25674674;23;20169;-70
2022/01/28 19:45:54;;;;;;;0.20;0.10;;;11.60;99.90;;;;;;25700756;23;20192;-70
2022/01/28 19:56:00;;;;;;;0.20;0.03;;;11.50;99.90;;;;;;25676414;23;20237;-66
2022/01/28 20:06:04;;;;;;;0.20;0.10;;;11.30;99.90;;;;;;25708705;23;20292;-66
2022/01/28 20:16:09;;;;;;;0.20;0.10;;;11.00;99.90;;;;;;25685970;23;20180;-69
2022/01/28 20:26:13;;;;;;;28.90;26.90;;;11.70;99.90;;;;;;25710655;23;20192;-70
2022/01/28 20:36:19;;;;;;;0.20;0.10;;;12.00;99.90;;;;;;25707990;23;20184;-70
2022/01/28 20:46:22;;;;;;;0.20;0.10;;;12.10;99.90;;;;;;25684932;23;20267;-69
2022/01/28 20:56:28;;;;;;;0.70;0.70;;;12.00;99.90;;;;;;25708674;23;20169;-70
2022/01/28 21:06:31;;;;;;;0.20;0.10;;;11.80;99.90;;;;;;25709439;23;20271;-71
2022/01/28 21:16:39;;;;;;;0.20;0.10;;;11.40;99.90;;;;;;25708890;23;20173;-69
2022/01/28 21:26:43;;;;;;;0.20;0.10;;;11.70;99.90;;;;;;25708311;23;20512;-70
2022/01/28 21:36:48;;;;;;;0.40;0.33;;;11.90;99.90;;;;;;25706891;23;20174;-71
2022/01/28 21:46:51;;;;;;;0.20;0.10;;;11.40;99.90;;;;;;25680246;23;20208;-70
2022/01/28 21:56:57;;;;;;;0.20;0.10;;;10.70;99.90;;;;;;25707568;23;20170;-70
2022/01/28 22:07:00;;;;;;;0.20;0.10;;;11.60;99.90;;;;;;25677690;23;20301;-75
2022/01/28 22:17:05;;;;;;;0.20;0.10;;;11.20;99.90;;;;;;25680295;23;20253;-76
2022/01/28 22:27:09;;;;;;;0.20;0.10;;;11.00;99.90;;;;;;25707269;23;20284;-73
2022/01/28 22:37:14;;;;;;;0.20;0.10;;;11.00;99.90;;;;;;25706934;23;20780;-75
2022/01/28 22:47:18;;;;;;;0.20;0.10;;;10.30;99.90;;;;;;25704907;23;20190;-74
2022/01/28 22:57:24;;;;;;;0.20;0.10;;;9.90;99.90;;;;;;25706154;23;20227;-67
2022/01/28 23:07:28;;;;;;;0.20;0.10;;;9.80;99.90;;;;;;25705875;23;20696;-64
2022/01/28 23:17:34;;;;;;;0.20;0.10;;;10.20;99.90;;;;;;25705694;23;20177;-74
2022/01/28 23:27:37;;;;;;;0.20;0.10;;;10.20;99.90;;;;;;25699745;23;20243;-74
2022/01/28 23:37:43;;;;;;;0.87;0.83;;;10.20;99.90;;;;;;25705100;23;20663;-74
2022/01/28 23:47:47;;;;;;;0.20;0.10;;;10.30;99.90;;;;;;25704287;23;20235;-72
2022/01/28 23:57:52;;;;;;;0.20;0.10;;;9.90;99.90;;;;;;25704118;23;20256;-74
